Impacts TAF Board INFO
FOR SITUATIONAL AWARENESS. NOT TO BE USED FOR FLIGHT PLANNING PURPOSES.
IDs:

KSEA - Seattle-Tacoma Intl, WA, US

Issued at 1120 UTC 25 Feb 2018
Updated at 1332 UTC 25 Feb 2018
Potential Impact None Slight Moderate High
Time1316Z 25/14Z 25/15Z 25/16Z 25/17Z 25/18Z 25/19Z 25/20Z 25/21Z 25/22Z 25/23Z 26/00Z 26/01Z 26/02Z>>
Type OBS PRVL PRVL PRVL PRVL PRVL PRVL PRVL PRVL PRVL PRVL PRVL PRVL PRVL
VIS 7 >6 >6 >6 >6 >6 >6 >6 >6 >6 >6 >6 >6 >6
CIG 11 20 20 20 20 35 35 35 35 35 35 35 35 40
Cover OVC OVC OVC OVC OVC BKN BKN BKN BKN BKN BKN BKN BKN BKN
FltCat MVFR MVFR MVFR MVFR MVFR VFR VFR VFR VFR VFR VFR VFR VFR VFR
WX -RA -RA -RA -RA -RA VCSH VCSH VCSH VCSH VCSH VCSH VCSH VCSH --
WDir 200 220 220 220 220 220 220 220 220 220 220 220 220 190
WSpd 16 19 19 19 19 14 14 14 14 14 14 14 14 8
WGst 22 27 27 27 27 -- -- -- -- -- -- -- -- --

Raw TAF
KSEA 251120Z 2512/2618 22019G27KT P6SM -RA OVC020
  FM251800 22014KT P6SM VCSH SCT020 BKN035
  FM260200 19008KT P6SM SCT020 BKN040
  FM260800 17007KT P6SM BKN020 OVC030


Raw METAR
KSEA 251316Z 20016G22KT 7SM -RA FEW007 BKN011 OVC020 05/04 A2986 RMK AO2 PK WND 19026/1255 P0004 T00500044
KSEA 251253Z 20017G25KT 7SM -RA BKN013 OVC021 05/04 A2986 RMK AO2 RAB1154 SLP121 P0005 T00500044
KSEA 251153Z 20015KT 9SM BKN012 OVC021 05/04 A2990 RMK AO2 PK WND 19029/1104 RAE23 SLP133 P0001 60009 70009 T00500044 10056 20039 56043
KSEA 251100Z 19017G25KT 8SM -RA BKN012 OVC021 04/03 A2992 RMK AO2 P0001 T00440033
KSEA 251053Z 19020KT 8SM -RA BKN015 OVC019 04/03 A2992 RMK AO2 PK WND 20028/1027 SLP139 P0005 T00440028

METAR Board
Radar Display
Forecast Discussion

FOR SITUATIONAL AWARENESS. NOT TO BE USED FOR FLIGHT PLANNING PURPOSES.